createdAt,value
2018-06-13T00:01:32.603Z,0.00
2018-06-13T00:02:32.504Z,0.00
2018-06-13T00:04:25.277Z,0.00
2018-06-13T00:05:25.217Z,0.00
2018-06-13T00:07:17.991Z,0.00
2018-06-13T00:08:17.921Z,0.00
2018-06-13T00:10:10.690Z,0.00
2018-06-13T00:11:10.629Z,0.00
2018-06-13T00:13:03.405Z,0.00
2018-06-13T00:14:03.330Z,0.00
2018-06-13T00:15:56.112Z,0.00
2018-06-13T00:16:56.043Z,0.00
2018-06-13T00:18:48.806Z,0.00
2018-06-13T00:19:48.741Z,0.00
2018-06-13T00:21:41.519Z,0.00
2018-06-13T00:22:41.447Z,0.00
2018-06-13T00:24:34.212Z,0.00
2018-06-13T00:25:34.179Z,0.00
2018-06-13T00:27:26.934Z,0.00
2018-06-13T00:28:26.858Z,0.00
2018-06-13T00:30:19.613Z,0.00
2018-06-13T00:31:19.552Z,0.00
2018-06-13T00:33:12.332Z,0.00
2018-06-13T00:34:12.258Z,0.00
2018-06-13T00:36:05.048Z,0.00
2018-06-13T00:37:04.989Z,0.00
2018-06-13T00:38:57.808Z,0.00
2018-06-13T00:39:57.737Z,0.00
2018-06-13T00:41:50.530Z,0.00
2018-06-13T00:42:50.450Z,0.00
2018-06-13T00:44:43.242Z,0.00
2018-06-13T00:45:43.176Z,0.00
2018-06-13T00:47:35.955Z,0.00
2018-06-13T00:48:35.893Z,0.00
2018-06-13T00:50:28.663Z,0.00
2018-06-13T00:51:28.603Z,0.00
2018-06-13T00:53:21.382Z,0.00
2018-06-13T00:54:21.306Z,0.00
2018-06-13T00:56:14.118Z,0.00
2018-06-13T00:57:14.037Z,0.00
2018-06-13T00:59:06.788Z,0.00
2018-06-13T01:00:06.715Z,0.00
2018-06-13T01:01:59.495Z,0.00
2018-06-13T01:02:59.422Z,0.00
2018-06-13T01:04:52.186Z,0.00
2018-06-13T01:05:52.129Z,0.00
2018-06-13T01:07:44.911Z,0.00
2018-06-13T01:08:44.835Z,0.00
2018-06-13T01:10:37.606Z,0.00
2018-06-13T01:11:37.543Z,0.00
2018-06-13T01:13:30.342Z,0.00
2018-06-13T01:14:30.278Z,0.00
2018-06-13T01:16:23.067Z,0.00
2018-06-13T01:17:23.010Z,0.00
2018-06-13T01:19:15.795Z,0.00
2018-06-13T01:20:15.716Z,0.00
2018-06-13T01:22:08.489Z,0.00
2018-06-13T01:23:08.423Z,0.00
2018-06-13T01:25:01.184Z,0.00
2018-06-13T01:26:01.124Z,0.00
2018-06-13T01:27:53.911Z,0.00
2018-06-13T01:28:53.833Z,0.00
2018-06-13T01:30:46.604Z,0.00
2018-06-13T01:31:46.538Z,0.00
2018-06-13T01:33:39.319Z,0.00
2018-06-13T01:34:39.244Z,0.00
2018-06-13T01:36:32.011Z,0.00
2018-06-13T01:37:31.949Z,0.00
2018-06-13T01:39:24.750Z,0.00
2018-06-13T01:40:24.669Z,0.00
2018-06-13T01:42:17.432Z,0.00
2018-06-13T01:43:17.426Z,0.00
2018-06-13T01:45:10.167Z,0.00
2018-06-13T01:46:10.103Z,0.00
2018-06-13T01:48:02.886Z,0.00
2018-06-13T01:49:02.795Z,0.00
2018-06-13T01:50:55.561Z,0.00
2018-06-13T01:51:55.503Z,0.00
2018-06-13T01:53:48.285Z,0.00
2018-06-13T01:54:48.208Z,0.00
2018-06-13T01:56:40.982Z,0.00
2018-06-13T01:57:40.914Z,0.00
2018-06-13T01:59:33.694Z,0.00
2018-06-13T02:00:33.618Z,0.00
2018-06-13T02:02:26.388Z,0.00
2018-06-13T02:03:26.327Z,0.00
2018-06-13T02:05:19.105Z,0.00
2018-06-13T02:06:19.032Z,0.00
2018-06-13T02:08:11.809Z,0.00
2018-06-13T02:09:11.735Z,0.00
2018-06-13T02:11:04.509Z,0.00
2018-06-13T02:12:04.440Z,0.00
2018-06-13T02:13:57.219Z,0.00
2018-06-13T02:14:57.157Z,0.00
2018-06-13T02:16:49.919Z,0.00
2018-06-13T02:17:49.852Z,0.00
2018-06-13T02:19:42.634Z,0.00
2018-06-13T02:20:42.565Z,4.00
2018-06-13T02:22:35.334Z,0.00
2018-06-13T02:23:35.278Z,0.00
2018-06-13T02:25:28.044Z,0.00
2018-06-13T02:26:27.974Z,4.00
2018-06-13T02:28:20.749Z,0.00
2018-06-13T02:29:20.700Z,4.00
2018-06-13T02:31:13.468Z,4.00
2018-06-13T02:32:13.391Z,4.00
2018-06-13T02:34:06.164Z,4.00
2018-06-13T02:35:06.091Z,8.00
2018-06-13T02:36:58.864Z,4.00
2018-06-13T02:37:58.800Z,8.00
2018-06-13T02:39:51.575Z,8.00
2018-06-13T02:40:51.502Z,12.00
2018-06-13T02:42:44.271Z,12.00
2018-06-13T02:43:44.207Z,12.00
2018-06-13T02:45:36.985Z,12.00
2018-06-13T02:46:36.907Z,16.00
2018-06-13T02:48:29.681Z,16.00
2018-06-13T02:49:29.611Z,20.00
2018-06-13T02:51:22.393Z,20.00
2018-06-13T02:52:22.319Z,20.00
2018-06-13T02:54:15.097Z,24.00
2018-06-13T02:55:15.014Z,24.00
2018-06-13T02:57:07.798Z,24.00
2018-06-13T02:58:07.738Z,24.00
2018-06-13T03:00:00.580Z,24.00
2018-06-13T03:01:00.470Z,28.00
2018-06-13T03:02:53.204Z,32.00
2018-06-13T03:03:53.142Z,32.00
2018-06-13T03:05:45.920Z,36.00
2018-06-13T03:06:45.843Z,36.00
2018-06-13T03:08:38.616Z,40.00
2018-06-13T03:09:38.564Z,44.00
2018-06-13T03:11:31.355Z,48.00
2018-06-13T03:12:31.285Z,48.00
2018-06-13T03:14:24.072Z,48.00
2018-06-13T03:15:23.986Z,44.00
2018-06-13T03:17:16.749Z,48.00
2018-06-13T03:18:16.683Z,48.00
2018-06-13T03:20:09.462Z,48.00
2018-06-13T03:21:09.402Z,48.00
2018-06-13T03:23:02.194Z,52.00
2018-06-13T03:24:02.106Z,52.00
2018-06-13T03:25:54.900Z,52.00
2018-06-13T03:26:54.833Z,52.00
2018-06-13T03:28:47.588Z,56.00
2018-06-13T03:29:47.524Z,52.00
2018-06-13T03:31:40.295Z,56.00
2018-06-13T03:32:40.220Z,56.00
2018-06-13T03:34:33.013Z,60.00
2018-06-13T03:35:32.940Z,60.00
2018-06-13T03:37:25.721Z,64.00
2018-06-13T03:38:25.650Z,64.00
2018-06-13T03:40:18.432Z,72.00
2018-06-13T03:41:18.370Z,72.00
2018-06-13T03:43:11.140Z,72.00
2018-06-13T03:44:11.079Z,72.00
2018-06-13T03:46:03.898Z,76.00
2018-06-13T03:47:03.788Z,76.00
2018-06-13T03:48:56.562Z,80.00
2018-06-13T03:49:56.492Z,84.00
2018-06-13T03:51:49.278Z,92.00
2018-06-13T03:52:49.208Z,96.00
2018-06-13T03:54:41.984Z,96.00
2018-06-13T03:55:41.932Z,100.00
2018-06-13T03:57:34.711Z,100.00
2018-06-13T03:58:34.641Z,100.00
2018-06-13T04:00:27.393Z,100.00
2018-06-13T04:01:27.328Z,104.00
2018-06-13T04:03:20.111Z,108.00
2018-06-13T04:04:20.039Z,112.00
2018-06-13T04:06:12.843Z,116.00
2018-06-13T04:07:12.748Z,116.00
2018-06-13T04:09:05.523Z,124.00
2018-06-13T04:10:05.453Z,128.00
2018-06-13T04:11:58.230Z,132.00
2018-06-13T04:12:58.152Z,140.00
2018-06-13T04:14:50.945Z,148.00
2018-06-13T04:15:50.877Z,152.00
2018-06-13T04:17:43.695Z,156.00
2018-06-13T04:18:43.612Z,164.00
2018-06-13T04:20:36.413Z,176.00
2018-06-13T04:21:36.348Z,188.00
2018-06-13T04:23:29.121Z,196.00
2018-06-13T04:24:29.050Z,200.00
2018-06-13T04:26:21.841Z,208.00
2018-06-13T04:27:21.767Z,212.00
2018-06-13T04:29:14.554Z,224.00
2018-06-13T04:30:14.496Z,236.00
2018-06-13T04:32:07.292Z,256.00
2018-06-13T04:33:07.218Z,264.00
2018-06-13T04:34:59.995Z,304.00
2018-06-13T04:35:59.924Z,296.00
2018-06-13T04:37:52.737Z,316.00
2018-06-13T04:38:52.639Z,336.00
2018-06-13T04:40:45.418Z,360.00
2018-06-13T04:41:45.359Z,376.00
2018-06-13T04:43:38.139Z,408.00
2018-06-13T04:44:38.067Z,432.00
2018-06-13T04:46:30.849Z,492.00
2018-06-13T04:47:30.772Z,520.00
2018-06-13T04:49:23.572Z,536.00
2018-06-13T04:50:23.494Z,548.00
2018-06-13T04:52:16.285Z,572.00
2018-06-13T04:53:16.215Z,580.00
2018-06-13T04:55:08.986Z,588.00
2018-06-13T04:56:08.920Z,584.00
2018-06-13T04:58:01.717Z,580.00
2018-06-13T04:59:01.643Z,580.00
2018-06-13T05:00:54.412Z,560.00
2018-06-13T05:01:54.348Z,544.00
2018-06-13T05:03:47.141Z,516.00
2018-06-13T05:04:47.075Z,504.00
2018-06-13T05:06:39.848Z,460.00
2018-06-13T05:07:39.786Z,440.00
2018-06-13T05:09:32.618Z,400.00
2018-06-13T05:10:32.523Z,376.00
2018-06-13T05:12:25.334Z,344.00
2018-06-13T05:13:25.284Z,332.00
2018-06-13T05:15:18.008Z,340.00
2018-06-13T05:16:17.966Z,340.00
2018-06-13T05:18:10.742Z,340.00
2018-06-13T05:19:10.655Z,336.00
2018-06-13T05:21:03.465Z,336.00
2018-06-13T05:22:03.405Z,336.00
2018-06-13T05:23:56.204Z,340.00
2018-06-13T05:24:56.128Z,344.00
2018-06-13T05:26:48.900Z,344.00
2018-06-13T05:27:48.841Z,344.00
2018-06-13T05:29:41.660Z,348.00
2018-06-13T05:30:41.787Z,356.00
2018-06-13T05:32:34.369Z,360.00
2018-06-13T05:33:34.311Z,368.00
2018-06-13T05:35:27.087Z,376.00
2018-06-13T05:36:27.016Z,380.00
2018-06-13T05:38:19.813Z,404.00
2018-06-13T05:39:19.724Z,416.00
2018-06-13T05:41:12.487Z,456.00
2018-06-13T05:42:12.485Z,460.00
2018-06-13T05:44:05.212Z,488.00
2018-06-13T05:45:05.143Z,488.00
2018-06-13T05:46:57.955Z,492.00
2018-06-13T05:47:57.883Z,496.00
2018-06-13T05:49:50.702Z,500.00
2018-06-13T05:50:50.613Z,500.00
2018-06-13T05:52:43.380Z,500.00
2018-06-13T05:53:43.311Z,496.00
2018-06-13T05:55:36.119Z,484.00
2018-06-13T05:56:36.022Z,480.00
2018-06-13T05:58:28.790Z,476.00
2018-06-13T05:59:28.726Z,480.00
2018-06-13T06:01:21.551Z,484.00
2018-06-13T06:02:21.444Z,484.00
2018-06-13T06:04:14.222Z,476.00
2018-06-13T06:05:14.149Z,476.00
2018-06-13T06:07:06.924Z,480.00
2018-06-13T06:08:06.863Z,488.00
2018-06-13T06:09:59.675Z,496.00
2018-06-13T06:10:59.572Z,500.00
2018-06-13T06:12:52.360Z,520.00
2018-06-13T06:13:52.313Z,532.00
2018-06-13T06:15:45.079Z,552.00
2018-06-13T06:16:45.069Z,576.00
2018-06-13T06:18:37.771Z,624.00
2018-06-13T06:19:37.717Z,640.00
2018-06-13T06:21:30.512Z,676.00
2018-06-13T06:22:30.439Z,704.00
2018-06-13T06:24:23.204Z,788.00
2018-06-13T06:25:23.152Z,840.00
2018-06-13T06:27:15.940Z,940.00
2018-06-13T06:28:15.867Z,992.00
2018-06-13T06:30:08.643Z,1084.00
2018-06-13T06:31:08.571Z,1124.00
2018-06-13T06:33:01.340Z,1248.00
2018-06-13T06:34:01.277Z,1312.00
2018-06-13T06:35:54.179Z,1448.00
2018-06-13T06:36:54.130Z,1540.00
2018-06-13T06:38:46.881Z,1784.00
2018-06-13T06:39:46.808Z,1844.00
2018-06-13T06:41:39.607Z,2024.00
2018-06-13T06:42:39.531Z,2128.00
2018-06-13T06:44:32.316Z,2352.00
2018-06-13T06:45:32.251Z,2440.00
2018-06-13T06:47:25.040Z,2524.00
2018-06-13T06:48:24.962Z,2616.00
2018-06-13T06:50:17.741Z,2652.00
2018-06-13T06:51:17.684Z,2640.00
2018-06-13T06:53:10.471Z,2768.00
2018-06-13T06:54:10.393Z,2916.00
2018-06-13T06:56:03.187Z,3236.00
2018-06-13T06:57:03.121Z,3408.00
2018-06-13T06:58:55.917Z,3784.00
2018-06-13T06:59:55.842Z,4708.00
2018-06-13T07:01:48.637Z,3800.00
2018-06-13T07:02:48.643Z,3396.00
2018-06-13T07:04:41.324Z,3224.00
2018-06-13T07:05:41.262Z,3892.00
2018-06-13T07:07:34.052Z,3724.00
2018-06-13T07:08:33.979Z,4684.00
2018-06-13T07:10:26.765Z,4196.00
2018-06-13T07:11:26.687Z,3388.00
2018-06-13T07:13:19.470Z,2328.00
2018-06-13T07:14:19.400Z,2072.00
2018-06-13T07:16:12.169Z,2848.00
2018-06-13T07:17:12.106Z,10092.00
2018-06-13T07:19:04.939Z,7944.00
2018-06-13T07:20:04.832Z,11484.00
2018-06-13T07:21:57.651Z,8876.00
2018-06-13T07:22:57.579Z,11260.00
2018-06-13T07:24:50.422Z,13376.00
2018-06-13T07:25:50.283Z,16576.00
2018-06-13T07:27:43.160Z,15712.00
2018-06-13T07:28:43.004Z,14912.00
2018-06-13T07:30:35.774Z,3564.00
2018-06-13T07:31:35.724Z,18336.00
2018-06-13T07:33:28.559Z,3264.00
2018-06-13T07:34:28.450Z,4224.00
2018-06-13T07:36:21.564Z,2204.00
2018-06-13T07:37:21.518Z,2092.00
2018-06-13T07:39:14.287Z,3892.00
2018-06-13T07:40:14.220Z,13216.00
2018-06-13T07:42:07.024Z,5220.00
2018-06-13T07:43:06.949Z,5268.00
2018-06-13T07:44:59.730Z,6556.00
2018-06-13T07:45:59.735Z,14432.00
2018-06-13T07:47:52.465Z,2340.00
2018-06-13T07:48:52.396Z,1840.00
2018-06-13T07:50:45.192Z,1388.00
2018-06-13T07:51:45.125Z,1400.00
2018-06-13T07:53:37.927Z,1520.00
2018-06-13T07:54:37.851Z,1736.00
2018-06-13T07:56:30.632Z,3232.00
2018-06-13T07:57:30.574Z,2044.00
2018-06-13T07:59:23.369Z,15936.00
2018-06-13T08:00:23.300Z,16224.00
2018-06-13T08:02:16.122Z,15008.00
2018-06-13T08:03:16.015Z,15712.00
2018-06-13T08:05:08.812Z,14784.00
2018-06-13T08:06:08.747Z,15072.00
2018-06-13T08:08:01.578Z,6132.00
2018-06-13T08:09:01.508Z,3228.00
2018-06-13T08:10:54.282Z,2452.00
2018-06-13T08:11:54.227Z,2140.00
2018-06-13T08:13:47.040Z,1496.00
2018-06-13T08:14:46.969Z,1232.00
2018-06-13T08:16:39.759Z,936.00
2018-06-13T08:17:39.706Z,852.00
2018-06-13T08:19:32.501Z,796.00
2018-06-13T08:20:32.430Z,884.00
2018-06-13T08:22:25.207Z,968.00
2018-06-13T08:23:25.152Z,1044.00
2018-06-13T08:25:17.941Z,1144.00
2018-06-13T08:26:17.991Z,1184.00
2018-06-13T08:28:10.660Z,1300.00
2018-06-13T08:29:10.585Z,1420.00
2018-06-13T08:31:03.385Z,1916.00
2018-06-13T08:32:03.321Z,3676.00
2018-06-13T08:33:56.099Z,2412.00
2018-06-13T08:34:56.033Z,2204.00
2018-06-13T08:36:48.811Z,2164.00
2018-06-13T08:37:48.752Z,2288.00
2018-06-13T08:39:41.551Z,2532.00
2018-06-13T08:40:41.479Z,2764.00
2018-06-13T08:42:34.259Z,3876.00
2018-06-13T08:43:34.219Z,4640.00
2018-06-13T08:45:26.986Z,3816.00
2018-06-13T08:46:26.911Z,4160.00
2018-06-13T08:48:19.690Z,5152.00
2018-06-13T08:49:19.624Z,4700.00
2018-06-13T08:51:12.412Z,7308.00
2018-06-13T08:52:12.342Z,4276.00
2018-06-13T08:54:05.153Z,3904.00
2018-06-13T08:55:05.068Z,3304.00
2018-06-13T08:56:57.844Z,2240.00
2018-06-13T08:57:57.787Z,1776.00
2018-06-13T08:59:50.566Z,1108.00
2018-06-13T09:00:50.500Z,900.00
2018-06-13T09:02:43.301Z,688.00
2018-06-13T09:03:43.237Z,652.00
2018-06-13T09:05:36.023Z,664.00
2018-06-13T09:06:35.951Z,692.00
2018-06-13T09:08:28.732Z,752.00
2018-06-13T09:09:28.665Z,800.00
2018-06-13T09:11:21.448Z,912.00
2018-06-13T09:12:21.375Z,960.00
2018-06-13T09:14:14.189Z,1036.00
2018-06-13T09:15:14.114Z,1056.00
2018-06-13T09:17:06.906Z,1104.00
2018-06-13T09:18:06.835Z,1136.00
2018-06-13T09:19:59.676Z,1192.00
2018-06-13T09:20:59.598Z,1228.00
2018-06-13T09:22:52.388Z,1284.00
2018-06-13T09:23:52.318Z,1312.00
2018-06-13T09:25:45.129Z,1392.00
2018-06-13T09:26:45.036Z,1448.00
2018-06-13T09:28:37.826Z,1556.00
2018-06-13T09:29:37.780Z,1616.00
2018-06-13T09:31:30.705Z,1732.00
2018-06-13T09:32:30.616Z,1788.00
2018-06-13T09:34:23.430Z,1864.00
2018-06-13T09:35:23.364Z,1852.00
2018-06-13T09:37:16.238Z,1884.00
2018-06-13T09:38:16.077Z,1948.00
2018-06-13T09:40:08.877Z,2032.00
2018-06-13T09:41:08.799Z,2052.00
2018-06-13T09:43:01.573Z,1972.00
2018-06-13T09:44:01.515Z,1980.00
2018-06-13T09:46:03.271Z,2092.00
2018-06-13T09:46:54.220Z,2184.00
2018-06-13T09:48:47.009Z,2424.00
2018-06-13T09:49:47.043Z,2576.00
2018-06-13T09:51:39.747Z,2736.00
2018-06-13T09:52:39.751Z,2764.00
2018-06-13T09:54:32.459Z,2800.00
2018-06-13T09:55:32.392Z,2820.00
2018-06-13T09:57:25.197Z,2896.00
2018-06-13T09:58:25.124Z,2904.00
2018-06-13T10:00:17.935Z,2824.00
2018-06-13T10:01:17.863Z,2728.00
2018-06-13T10:03:10.640Z,2632.00
2018-06-13T10:04:10.588Z,2556.00
2018-06-13T10:06:03.368Z,2512.00
2018-06-13T10:07:03.288Z,2500.00
2018-06-13T10:08:56.093Z,2428.00
2018-06-13T10:09:56.049Z,2384.00
2018-06-13T10:11:48.845Z,2320.00
2018-06-13T10:12:48.764Z,2252.00
2018-06-13T10:14:41.588Z,2136.00
2018-06-13T10:15:41.540Z,2088.00
2018-06-13T10:17:34.302Z,2020.00
2018-06-13T10:18:34.285Z,1964.00
2018-06-13T10:20:27.046Z,1876.00
2018-06-13T10:21:26.964Z,1852.00
2018-06-13T10:23:19.756Z,1840.00
2018-06-13T10:24:19.679Z,1852.00
2018-06-13T10:26:12.479Z,1848.00
2018-06-13T10:27:12.398Z,1856.00
2018-06-13T10:29:05.276Z,1920.00
2018-06-13T10:30:05.184Z,1968.00
2018-06-13T10:31:58.007Z,2060.00
2018-06-13T10:32:57.916Z,2104.00
2018-06-13T10:34:50.701Z,2200.00
2018-06-13T10:35:50.636Z,2224.00
2018-06-13T10:37:43.431Z,2256.00
2018-06-13T10:38:43.358Z,2212.00
2018-06-13T10:40:36.143Z,2108.00
2018-06-13T10:41:36.074Z,2036.00
2018-06-13T10:43:28.863Z,1924.00
2018-06-13T10:44:28.788Z,1832.00
2018-06-13T10:46:21.611Z,1720.00
2018-06-13T10:47:21.522Z,1672.00
2018-06-13T10:49:14.347Z,1588.00
2018-06-13T10:50:14.265Z,1556.00
2018-06-13T10:52:07.038Z,1548.00
2018-06-13T10:53:06.965Z,1548.00
2018-06-13T10:54:59.760Z,1596.00
2018-06-13T10:55:59.689Z,1608.00
2018-06-13T10:57:52.556Z,1552.00
2018-06-13T10:58:52.489Z,1480.00
2018-06-13T11:00:45.331Z,1344.00
2018-06-13T11:01:45.276Z,1264.00
2018-06-13T11:03:38.060Z,1120.00
2018-06-13T11:04:38.050Z,1008.00
2018-06-13T11:06:30.770Z,812.00
2018-06-13T11:07:30.715Z,732.00
2018-06-13T11:09:23.525Z,648.00
2018-06-13T11:10:23.449Z,628.00
2018-06-13T11:12:16.243Z,620.00
2018-06-13T11:13:16.180Z,636.00
2018-06-13T11:15:09.041Z,712.00
2018-06-13T11:16:08.964Z,764.00
2018-06-13T11:18:01.766Z,860.00
2018-06-13T11:19:01.684Z,892.00
2018-06-13T11:20:54.465Z,944.00
2018-06-13T11:21:54.403Z,948.00
2018-06-13T11:23:47.198Z,924.00
2018-06-13T11:24:47.150Z,932.00
2018-06-13T11:26:39.919Z,992.00
2018-06-13T11:27:39.875Z,1036.00
2018-06-13T11:29:32.649Z,1120.00
2018-06-13T11:30:32.568Z,1164.00
2018-06-13T11:32:25.338Z,1308.00
2018-06-13T11:33:25.345Z,1388.00
2018-06-13T11:35:18.098Z,1492.00
2018-06-13T11:36:17.983Z,1524.00
2018-06-13T11:38:10.768Z,1496.00
2018-06-13T11:39:10.712Z,1444.00
2018-06-13T11:41:03.512Z,1352.00
2018-06-13T11:42:03.429Z,1336.00
2018-06-13T11:43:56.241Z,1344.00
2018-06-13T11:44:56.167Z,1332.00
2018-06-13T11:46:49.002Z,1320.00
2018-06-13T11:47:48.927Z,1296.00
2018-06-13T11:49:41.728Z,1220.00
2018-06-13T11:50:41.647Z,1192.00
2018-06-13T11:52:34.528Z,1124.00
2018-06-13T11:53:34.389Z,1068.00
2018-06-13T11:55:27.177Z,988.00
2018-06-13T11:56:27.104Z,956.00
2018-06-13T11:58:19.907Z,956.00
2018-06-13T11:59:19.832Z,952.00
2018-06-13T12:01:12.621Z,1004.00
2018-06-13T12:02:12.543Z,1060.00
2018-06-13T12:04:05.481Z,1172.00
2018-06-13T12:05:05.290Z,1208.00
2018-06-13T12:06:58.100Z,1188.00
2018-06-13T12:07:58.014Z,1156.00
2018-06-13T12:09:50.860Z,1080.00
2018-06-13T12:10:50.790Z,1072.00
2018-06-13T12:12:43.680Z,984.00
2018-06-13T12:13:43.622Z,956.00
2018-06-13T12:15:36.409Z,892.00
2018-06-13T12:16:36.332Z,856.00
2018-06-13T12:18:29.126Z,812.00
2018-06-13T12:19:29.066Z,792.00
2018-06-13T12:21:21.876Z,764.00
2018-06-13T12:22:21.812Z,772.00
2018-06-13T12:24:14.576Z,820.00
2018-06-13T12:25:14.503Z,840.00
2018-06-13T12:27:07.330Z,888.00
2018-06-13T12:28:07.252Z,916.00
2018-06-13T12:30:00.074Z,948.00
2018-06-13T12:30:59.963Z,964.00
2018-06-13T12:32:52.820Z,1076.00
2018-06-13T12:33:52.743Z,1140.00
2018-06-13T12:35:45.528Z,1268.00
2018-06-13T12:36:45.458Z,1356.00
2018-06-13T12:38:38.237Z,1536.00
2018-06-13T12:39:38.224Z,1612.00
2018-06-13T12:41:30.978Z,1696.00
2018-06-13T12:42:30.900Z,1696.00
2018-06-13T12:44:23.706Z,1648.00
2018-06-13T12:45:23.677Z,1604.00
2018-06-13T12:47:16.494Z,1500.00
2018-06-13T12:48:16.410Z,1456.00
2018-06-13T12:50:09.190Z,1416.00
2018-06-13T12:51:09.120Z,1396.00
2018-06-13T12:53:01.921Z,1396.00
2018-06-13T12:54:02.007Z,1388.00
2018-06-13T12:55:54.668Z,1452.00
2018-06-13T12:56:54.545Z,1484.00
2018-06-13T12:58:47.441Z,1488.00
2018-06-13T12:59:47.257Z,1484.00
2018-06-13T13:01:40.091Z,1492.00
2018-06-13T13:02:40.013Z,1528.00
2018-06-13T13:04:32.839Z,1668.00
2018-06-13T13:05:32.715Z,1716.00
2018-06-13T13:07:25.508Z,1764.00
2018-06-13T13:08:25.422Z,1732.00
2018-06-13T13:10:18.240Z,1596.00
2018-06-13T13:11:18.179Z,1552.00
2018-06-13T13:13:11.017Z,1468.00
2018-06-13T13:14:10.889Z,1432.00
2018-06-13T13:16:04.460Z,1284.00
2018-06-13T13:17:04.423Z,1156.00
2018-06-13T13:18:57.151Z,872.00
2018-06-13T13:19:57.067Z,760.00
2018-06-13T13:21:49.852Z,684.00
2018-06-13T13:22:49.769Z,684.00
2018-06-13T13:24:42.554Z,748.00
2018-06-13T13:25:42.490Z,784.00
2018-06-13T13:27:35.348Z,848.00
2018-06-13T13:28:35.273Z,884.00
2018-06-13T13:30:28.086Z,900.00
2018-06-13T13:31:27.996Z,892.00
2018-06-13T13:33:20.794Z,920.00
2018-06-13T13:34:20.720Z,944.00
2018-06-13T13:36:13.513Z,984.00
2018-06-13T13:37:13.434Z,1000.00
2018-06-13T13:39:06.233Z,1004.00
2018-06-13T13:40:06.177Z,1000.00
2018-06-13T13:41:58.939Z,924.00
2018-06-13T13:42:58.887Z,888.00
2018-06-13T13:44:52.237Z,832.00
2018-06-13T13:45:52.162Z,824.00
2018-06-13T13:47:44.942Z,772.00
2018-06-13T13:48:44.869Z,764.00
2018-06-13T13:50:37.627Z,728.00
2018-06-13T13:51:37.594Z,692.00
2018-06-13T13:53:30.445Z,656.00
2018-06-13T13:54:30.407Z,636.00
2018-06-13T13:56:23.160Z,640.00
2018-06-13T13:57:23.119Z,664.00
2018-06-13T13:59:16.126Z,712.00
2018-06-13T14:00:15.976Z,744.00
2018-06-13T14:02:08.737Z,788.00
2018-06-13T14:03:08.647Z,800.00
2018-06-13T14:05:01.446Z,812.00
2018-06-13T14:06:01.375Z,816.00
2018-06-13T14:07:54.162Z,856.00
2018-06-13T14:08:54.093Z,864.00
2018-06-13T14:10:46.887Z,936.00
2018-06-13T14:11:46.835Z,976.00
2018-06-13T14:13:39.653Z,1052.00
2018-06-13T14:14:39.568Z,1080.00
2018-06-13T14:16:32.371Z,1080.00
2018-06-13T14:17:32.296Z,1048.00
2018-06-13T14:19:25.123Z,1004.00
2018-06-13T14:20:25.086Z,968.00
2018-06-13T14:22:17.914Z,992.00
2018-06-13T14:23:17.775Z,1040.00
2018-06-13T14:25:10.574Z,1204.00
2018-06-13T14:26:10.492Z,1304.00
2018-06-13T14:28:03.283Z,1484.00
2018-06-13T14:29:03.241Z,1532.00
2018-06-13T14:30:55.990Z,1560.00
2018-06-13T14:31:55.925Z,1560.00
2018-06-13T14:33:48.800Z,1560.00
2018-06-13T14:34:48.639Z,1576.00
2018-06-13T14:36:41.461Z,1564.00
2018-06-13T14:37:41.390Z,1528.00
2018-06-13T14:39:34.220Z,1392.00
2018-06-13T14:40:34.139Z,1288.00
2018-06-13T14:42:26.953Z,1116.00
2018-06-13T14:43:26.888Z,1072.00
2018-06-13T14:45:19.739Z,1072.00
2018-06-13T14:46:19.671Z,1056.00
2018-06-13T14:48:12.471Z,1004.00
2018-06-13T14:49:12.377Z,988.00
2018-06-13T14:51:05.169Z,928.00
2018-06-13T14:52:05.105Z,880.00
2018-06-13T14:53:57.900Z,760.00
2018-06-13T14:54:57.828Z,728.00
2018-06-13T14:56:50.798Z,656.00
2018-06-13T14:57:50.579Z,616.00
2018-06-13T14:59:43.337Z,564.00
2018-06-13T15:00:43.258Z,556.00
2018-06-13T15:02:36.029Z,584.00
2018-06-13T15:03:35.970Z,616.00
2018-06-13T15:05:28.795Z,672.00
2018-06-13T15:06:28.690Z,708.00
2018-06-13T15:08:21.515Z,764.00
2018-06-13T15:09:21.438Z,788.00
2018-06-13T15:11:14.199Z,796.00
2018-06-13T15:12:14.273Z,784.00
2018-06-13T15:14:06.988Z,752.00
2018-06-13T15:15:06.854Z,740.00
2018-06-13T15:16:59.653Z,736.00
2018-06-13T15:17:59.577Z,756.00
2018-06-13T15:19:52.375Z,728.00
2018-06-13T15:20:52.298Z,696.00
2018-06-13T15:22:45.077Z,616.00
2018-06-13T15:23:45.024Z,592.00
2018-06-13T15:25:37.832Z,536.00
2018-06-13T15:26:37.756Z,532.00
2018-06-13T15:28:30.544Z,548.00
2018-06-13T15:29:30.463Z,584.00
2018-06-13T15:31:23.419Z,664.00
2018-06-13T15:32:23.193Z,712.00
2018-06-13T15:34:16.041Z,728.00
2018-06-13T15:35:15.940Z,716.00
2018-06-13T15:37:08.725Z,760.00
2018-06-13T15:38:08.643Z,820.00
2018-06-13T15:40:01.773Z,952.00
2018-06-13T15:41:01.446Z,988.00
2018-06-13T15:42:54.259Z,976.00
2018-06-13T15:43:54.203Z,956.00
2018-06-13T15:45:46.988Z,936.00
2018-06-13T15:46:46.911Z,920.00
2018-06-13T15:48:39.871Z,912.00
2018-06-13T15:49:39.757Z,908.00
2018-06-13T15:51:32.558Z,872.00
2018-06-13T15:52:32.483Z,844.00
2018-06-13T15:54:25.247Z,804.00
2018-06-13T15:55:25.186Z,804.00
2018-06-13T15:57:18.042Z,800.00
2018-06-13T15:58:17.982Z,788.00
2018-06-13T16:00:10.776Z,732.00
2018-06-13T16:01:10.662Z,704.00
2018-06-13T16:03:03.623Z,652.00
2018-06-13T16:04:03.399Z,640.00
2018-06-13T16:05:56.342Z,652.00
2018-06-13T16:06:56.319Z,672.00
2018-06-13T16:08:49.171Z,716.00
2018-06-13T16:09:49.031Z,732.00
2018-06-13T16:11:41.928Z,732.00
2018-06-13T16:12:41.852Z,716.00
2018-06-13T16:14:34.643Z,700.00
2018-06-13T16:15:34.575Z,700.00
2018-06-13T16:17:27.457Z,700.00
2018-06-13T16:18:27.320Z,692.00
2018-06-13T16:20:20.092Z,676.00
2018-06-13T16:21:20.033Z,660.00
2018-06-13T16:23:12.859Z,640.00
2018-06-13T16:24:12.769Z,632.00
2018-06-13T16:26:05.702Z,592.00
2018-06-13T16:27:05.612Z,568.00
2018-06-13T16:28:58.376Z,572.00
2018-06-13T16:29:58.324Z,580.00
2018-06-13T16:31:51.107Z,588.00
2018-06-13T16:32:51.074Z,576.00
2018-06-13T16:34:43.875Z,568.00
2018-06-13T16:35:43.838Z,576.00
2018-06-13T16:37:36.592Z,588.00
2018-06-13T16:38:36.502Z,580.00
2018-06-13T16:40:29.482Z,572.00
2018-06-13T16:41:29.418Z,584.00
2018-06-13T16:43:22.254Z,592.00
2018-06-13T16:44:22.158Z,592.00
2018-06-13T16:46:14.945Z,580.00
2018-06-13T16:47:14.882Z,576.00
2018-06-13T16:49:07.728Z,568.00
2018-06-13T16:50:07.618Z,560.00
2018-06-13T16:52:00.434Z,544.00
2018-06-13T16:53:01.394Z,536.00
2018-06-13T16:54:53.176Z,504.00
2018-06-13T16:55:53.096Z,488.00
2018-06-13T16:57:45.895Z,468.00
2018-06-13T16:58:45.888Z,460.00
2018-06-13T17:00:38.618Z,440.00
2018-06-13T17:01:38.533Z,436.00
2018-06-13T17:03:31.359Z,424.00
2018-06-13T17:04:31.280Z,416.00
2018-06-13T17:06:24.066Z,388.00
2018-06-13T17:07:24.009Z,376.00
2018-06-13T17:09:16.830Z,364.00
2018-06-13T17:10:16.748Z,360.00
2018-06-13T17:12:09.569Z,336.00
2018-06-13T17:13:09.466Z,328.00
2018-06-13T17:15:02.248Z,316.00
2018-06-13T17:16:02.180Z,316.00
2018-06-13T17:17:55.105Z,312.00
2018-06-13T17:18:54.996Z,316.00
2018-06-13T17:20:47.773Z,316.00
2018-06-13T17:21:47.792Z,308.00
2018-06-13T17:23:40.497Z,292.00
2018-06-13T17:24:40.433Z,280.00
2018-06-13T17:26:33.228Z,272.00
2018-06-13T17:27:33.217Z,272.00
2018-06-13T17:29:25.991Z,256.00
2018-06-13T17:30:25.919Z,252.00
2018-06-13T17:32:18.784Z,232.00
2018-06-13T17:33:18.646Z,232.00
2018-06-13T17:35:11.427Z,228.00
2018-06-13T17:36:11.345Z,228.00
2018-06-13T17:38:04.132Z,224.00
2018-06-13T17:39:04.104Z,216.00
2018-06-13T17:40:56.834Z,208.00
2018-06-13T17:41:56.825Z,208.00
2018-06-13T17:43:49.872Z,200.00
2018-06-13T17:44:49.797Z,196.00
2018-06-13T17:46:42.748Z,188.00
2018-06-13T17:49:35.456Z,188.00
2018-06-13T17:50:35.389Z,192.00
2018-06-13T17:52:28.199Z,196.00
2018-06-13T17:53:28.183Z,196.00
2018-06-13T17:55:21.087Z,180.00
2018-06-13T17:56:20.876Z,176.00
2018-06-13T17:58:13.677Z,164.00
2018-06-13T17:59:13.595Z,160.00